Time;durP1;ratioP1;P1;durP2;ratioP2;P2;SDS_P1;SDS_P2;PMS_P1;PMS_P2;Temp;Humidity;BMP_temperature;BMP_pressure;BME280_temperature;BME280_humidity;BME280_pressure;Samples;Min_cycle;Max_cycle;Signal;HPM_P1;HPM_P2
2022/01/07 00:00:00;;;;;;;3.40;2.30;;;1.20;99.90;;;;;;5036708;28;20442;-48
2022/01/07 00:02:27;;;;;;;2.30;1.87;;;1.10;99.90;;;;;;5036490;28;20422;-51
2022/01/07 00:04:56;;;;;;;4.73;2.90;;;1.00;99.90;;;;;;5036981;28;20483;-50
2022/01/07 00:07:23;;;;;;;4.33;2.00;;;1.00;99.90;;;;;;5036755;28;20440;-53
2022/01/07 00:09:50;;;;;;;5.20;1.67;;;1.10;99.90;;;;;;5037074;28;20469;-55
2022/01/07 00:12:21;;;;;;;3.50;2.70;;;1.00;99.90;;;;;;5036723;28;20536;-53
2022/01/07 00:14:56;;;;;;;3.30;1.40;;;1.10;99.90;;;;;;5036613;28;20484;-50
2022/01/07 00:17:22;;;;;;;4.00;2.33;;;1.10;99.90;;;;;;5036846;28;20472;-54
2022/01/07 00:19:49;;;;;;;15.13;2.43;;;1.10;99.90;;;;;;5036413;28;20445;-49
2022/01/07 00:22:24;;;;;;;3.00;1.90;;;1.10;99.90;;;;;;5036682;28;20430;-55
2022/01/07 00:24:51;;;;;;;4.50;2.63;;;1.00;99.90;;;;;;5036589;28;20433;-52
2022/01/07 00:27:22;;;;;;;2.40;1.70;;;1.00;99.90;;;;;;5035930;28;20511;-49
2022/01/07 00:29:49;;;;;;;2.93;1.80;;;1.00;99.90;;;;;;5036420;28;20456;-53
2022/01/07 00:32:15;;;;;;;1.43;1.27;;;1.00;99.90;;;;;;5036013;28;20481;-51
2022/01/07 00:34:42;;;;;;;8.30;2.70;;;1.00;99.90;;;;;;5036420;28;20436;-53
2022/01/07 00:37:09;;;;;;;8.63;3.90;;;1.00;99.90;;;;;;5035901;28;20472;-53
2022/01/07 00:39:39;;;;;;;18.33;2.03;;;1.00;99.90;;;;;;5036534;28;20445;-54
2022/01/07 00:42:07;;;;;;;3.67;2.40;;;1.00;99.90;;;;;;5036769;28;20426;-52
2022/01/07 00:44:33;;;;;;;5.27;2.70;;;1.00;99.90;;;;;;5035821;28;20438;-50
2022/01/07 00:47:00;;;;;;;2.77;1.80;;;1.00;99.90;;;;;;5036641;28;20483;-53
2022/01/07 00:49:27;;;;;;;14.30;4.90;;;1.00;99.90;;;;;;5036605;28;20445;-50
2022/01/07 00:51:54;;;;;;;8.00;2.27;;;1.00;99.90;;;;;;5036246;28;20477;-50
2022/01/07 00:54:20;;;;;;;3.87;1.93;;;1.00;99.90;;;;;;5036570;28;20416;-53
2022/01/07 00:56:49;;;;;;;4.40;3.57;;;1.00;99.90;;;;;;5036076;28;20461;-52
2022/01/07 00:59:17;;;;;;;6.93;3.63;;;1.10;99.90;;;;;;5035813;28;20449;-52
2022/01/07 01:01:44;;;;;;;6.33;2.80;;;1.10;99.90;;;;;;5035833;28;20477;-55
2022/01/07 01:04:11;;;;;;;3.20;1.57;;;1.10;99.90;;;;;;5036011;28;20457;-54
2022/01/07 01:06:40;;;;;;;7.07;2.87;;;1.10;99.90;;;;;;5035620;28;20465;-53
2022/01/07 01:09:07;;;;;;;41.00;4.10;;;1.10;99.90;;;;;;5036519;28;20476;-49
2022/01/07 01:11:36;;;;;;;4.63;3.17;;;1.10;99.90;;;;;;5035919;28;20471;-61
2022/01/07 01:14:05;;;;;;;4.90;3.10;;;1.10;99.90;;;;;;5035762;28;20969;-55
2022/01/07 01:16:32;;;;;;;4.17;2.30;;;1.10;99.90;;;;;;5035633;28;20540;-53
2022/01/07 01:19:01;;;;;;;5.77;2.60;;;1.10;99.90;;;;;;5035844;28;20444;-52
2022/01/07 01:21:30;;;;;;;4.87;2.73;;;1.10;99.90;;;;;;5035941;28;20453;-51
2022/01/07 01:23:58;;;;;;;6.30;2.90;;;1.10;99.90;;;;;;5035558;28;20445;-48
2022/01/07 01:26:27;;;;;;;14.57;2.83;;;1.20;99.90;;;;;;5035608;28;20500;-51
2022/01/07 01:28:53;;;;;;;4.17;2.67;;;1.20;99.90;;;;;;5036543;28;20467;-50
2022/01/07 01:31:21;;;;;;;4.23;1.87;;;1.20;99.90;;;;;;5036010;28;20464;-47
2022/01/07 01:33:49;;;;;;;7.83;3.13;;;1.20;99.90;;;;;;5035717;28;20476;-52
2022/01/07 01:36:15;;;;;;;3.87;2.20;;;1.20;99.90;;;;;;5035467;28;20483;-52
2022/01/07 01:38:43;;;;;;;11.03;3.70;;;1.20;99.90;;;;;;5034913;28;20433;-52
2022/01/07 01:41:12;;;;;;;2.93;2.30;;;1.10;99.90;;;;;;5035530;28;20460;-46
2022/01/07 01:43:39;;;;;;;4.10;2.10;;;1.20;99.90;;;;;;5035675;28;20444;-53
2022/01/07 01:46:06;;;;;;;16.00;3.70;;;1.20;99.90;;;;;;5039190;28;20456;-53
2022/01/07 01:48:34;;;;;;;3.33;2.00;;;1.20;99.90;;;;;;5039469;28;20439;-53
2022/01/07 01:51:01;;;;;;;6.50;3.07;;;1.20;99.90;;;;;;5039140;28;20456;-53
2022/01/07 01:53:27;;;;;;;6.20;2.20;;;1.10;99.90;;;;;;5039022;28;20466;-53
2022/01/07 01:55:54;;;;;;;9.10;2.83;;;1.10;99.90;;;;;;5039229;28;20462;-53
2022/01/07 01:58:27;;;;;;;3.10;2.10;;;1.10;99.90;;;;;;5039682;28;20453;-53
2022/01/07 02:00:54;;;;;;;15.03;3.20;;;1.10;99.90;;;;;;5039082;28;20439;-52
2022/01/07 02:03:22;;;;;;;6.87;2.37;;;1.10;99.90;;;;;;5039244;28;20454;-50
2022/01/07 02:05:50;;;;;;;3.00;2.23;;;1.10;99.90;;;;;;5039179;28;20449;-50
2022/01/07 02:08:17;;;;;;;4.43;1.80;;;1.00;99.90;;;;;;5039179;28;20431;-48
2022/01/07 02:10:44;;;;;;;5.97;3.07;;;1.00;99.90;;;;;;5039446;28;20436;-53
2022/01/07 02:13:11;;;;;;;7.83;3.53;;;1.00;99.90;;;;;;5039089;28;20476;-49
2022/01/07 02:15:38;;;;;;;3.83;2.70;;;1.00;99.90;;;;;;5039340;28;20495;-56
2022/01/07 02:18:10;;;;;;;8.00;3.53;;;1.00;99.90;;;;;;5039441;28;20429;-53
2022/01/07 02:20:38;;;;;;;4.20;2.33;;;1.00;99.90;;;;;;5040213;28;20425;-52
2022/01/07 02:23:05;;;;;;;3.70;2.30;;;1.00;99.90;;;;;;5039428;28;20452;-51
2022/01/07 02:25:31;;;;;;;1.50;1.20;;;1.00;99.90;;;;;;5039448;28;20429;-53
2022/01/07 02:27:58;;;;;;;3.43;1.50;;;1.00;99.90;;;;;;5039723;28;20496;-51
2022/01/07 02:30:31;;;;;;;3.20;2.17;;;1.00;99.90;;;;;;5039255;28;20453;-55
2022/01/07 02:32:59;;;;;;;3.37;2.27;;;1.00;99.90;;;;;;5039378;28;20488;-49
2022/01/07 02:35:28;;;;;;;15.33;3.10;;;1.00;99.90;;;;;;5038974;28;20884;-47
2022/01/07 02:37:56;;;;;;;6.53;3.13;;;1.00;99.90;;;;;;5038179;28;20503;-51
2022/01/07 02:40:23;;;;;;;3.40;2.27;;;1.00;99.90;;;;;;5038258;28;20943;-49
2022/01/07 02:42:50;;;;;;;2.80;2.00;;;1.00;99.90;;;;;;5038388;28;20471;-47
2022/01/07 02:45:17;;;;;;;15.33;4.63;;;1.00;99.90;;;;;;5038049;28;20441;-54
2022/01/07 02:47:52;;;;;;;3.20;2.03;;;1.00;99.90;;;;;;5038222;28;20480;-49
2022/01/07 02:50:20;;;;;;;6.60;2.07;;;1.00;99.90;;;;;;5038187;28;20431;-49
2022/01/07 02:52:47;;;;;;;11.20;2.50;;;1.00;99.90;;;;;;5038123;28;20488;-54
2022/01/07 02:55:15;;;;;;;4.43;2.33;;;1.00;99.90;;;;;;5038129;28;20465;-56
2022/01/07 02:57:44;;;;;;;3.53;2.20;;;1.10;99.90;;;;;;5038796;28;20467;-53
2022/01/07 03:00:12;;;;;;;2.07;1.87;;;1.00;99.90;;;;;;5038533;28;20452;-53
2022/01/07 03:02:40;;;;;;;2.07;1.87;;;1.00;99.90;;;;;;5038316;28;20499;-51
2022/01/07 03:05:07;;;;;;;3.97;2.63;;;1.00;99.90;;;;;;5038450;28;20449;-46
2022/01/07 03:07:37;;;;;;;2.00;1.60;;;1.00;99.90;;;;;;5038549;28;20468;-54
2022/01/07 03:10:05;;;;;;;5.73;2.60;;;1.00;99.90;;;;;;5038188;28;20481;-48
2022/01/07 03:12:33;;;;;;;3.53;2.00;;;1.00;99.90;;;;;;5038282;28;20468;-52
2022/01/07 03:15:00;;;;;;;6.67;2.67;;;0.90;99.90;;;;;;5038084;28;20458;-52
2022/01/07 03:17:26;;;;;;;5.30;3.17;;;0.90;99.90;;;;;;5038214;28;20468;-50
2022/01/07 03:19:53;;;;;;;6.53;3.10;;;1.00;99.90;;;;;;5038088;28;20442;-49
2022/01/07 03:22:20;;;;;;;2.50;2.03;;;0.90;99.90;;;;;;5037216;28;20472;-52
2022/01/07 03:24:46;;;;;;;4.83;2.43;;;1.00;99.90;;;;;;5037392;28;20442;-52
2022/01/07 03:27:13;;;;;;;2.87;2.07;;;1.00;99.90;;;;;;5038039;28;20473;-48
2022/01/07 03:29:41;;;;;;;3.17;1.87;;;0.90;99.90;;;;;;5037550;28;20515;-49
2022/01/07 03:32:10;;;;;;;4.97;2.23;;;0.90;99.90;;;;;;5037666;28;20429;-48
2022/01/07 03:34:41;;;;;;;13.83;3.00;;;0.90;99.90;;;;;;5038058;28;20544;-45
2022/01/07 03:37:10;;;;;;;19.73;4.17;;;0.90;99.90;;;;;;5038047;28;20436;-52
2022/01/07 03:39:37;;;;;;;3.50;1.97;;;0.90;99.90;;;;;;5037257;28;20469;-47
2022/01/07 03:42:15;;;;;;;9.33;2.80;;;0.90;99.90;;;;;;5037671;28;20467;-51
2022/01/07 03:44:43;;;;;;;10.50;3.00;;;0.80;99.90;;;;;;5037503;28;20409;-53
2022/01/07 03:47:10;;;;;;;6.40;2.90;;;0.90;99.90;;;;;;5037153;28;20461;-54
2022/01/07 03:49:37;;;;;;;3.20;2.20;;;0.80;99.90;;;;;;5036998;28;20459;-53
2022/01/07 03:52:04;;;;;;;2.53;2.03;;;0.90;99.90;;;;;;5036690;28;20452;-50
2022/01/07 03:54:39;;;;;;;4.80;2.53;;;0.90;99.90;;;;;;5036903;28;20457;-52
2022/01/07 03:57:05;;;;;;;4.57;3.00;;;0.90;99.90;;;;;;5036710;28;20483;-55
2022/01/07 03:59:32;;;;;;;4.13;2.77;;;0.90;99.90;;;;;;5037090;28;20433;-53
2022/01/07 04:02:00;;;;;;;3.20;2.50;;;0.90;99.90;;;;;;5037115;28;20429;-52
2022/01/07 04:04:27;;;;;;;3.13;2.80;;;0.90;99.90;;;;;;5036662;28;20445;-49
2022/01/07 04:06:58;;;;;;;4.80;2.73;;;0.90;99.90;;;;;;5035967;28;20441;-53
2022/01/07 04:09:25;;;;;;;3.13;2.60;;;0.90;99.90;;;;;;5036797;28;20432;-50
2022/01/07 04:11:52;;;;;;;7.33;2.93;;;0.90;99.90;;;;;;5036890;28;20429;-48
2022/01/07 04:14:22;;;;;;;5.70;2.13;;;0.90;99.90;;;;;;5036701;28;20505;-49
2022/01/07 04:16:49;;;;;;;2.03;1.83;;;0.90;99.90;;;;;;5036917;28;20449;-54
2022/01/07 04:19:19;;;;;;;6.27;3.43;;;1.00;99.90;;;;;;5037436;28;20460;-51
2022/01/07 04:21:47;;;;;;;7.33;2.60;;;1.00;99.90;;;;;;5036911;28;20438;-51
2022/01/07 04:24:14;;;;;;;4.10;2.10;;;1.00;99.90;;;;;;5036667;28;20463;-49
2022/01/07 04:26:41;;;;;;;4.00;2.83;;;1.00;99.90;;;;;;5036869;28;20437;-53
2022/01/07 04:29:07;;;;;;;4.63;3.17;;;1.00;99.90;;;;;;5036453;28;20503;-53
2022/01/07 04:31:37;;;;;;;5.03;2.90;;;1.00;99.90;;;;;;5036311;28;20477;-55
2022/01/07 04:34:04;;;;;;;5.20;2.70;;;1.00;99.90;;;;;;5036015;28;20519;-52
2022/01/07 04:36:32;;;;;;;3.50;2.83;;;1.10;99.90;;;;;;5036277;28;20516;-54
2022/01/07 04:38:59;;;;;;;3.30;2.27;;;1.10;99.90;;;;;;5036203;28;20465;-51
2022/01/07 04:41:26;;;;;;;3.90;2.80;;;1.10;99.90;;;;;;5036293;28;20825;-54
2022/01/07 04:43:53;;;;;;;8.23;2.60;;;1.10;99.90;;;;;;5036153;28;20491;-49
2022/01/07 04:46:21;;;;;;;5.07;3.13;;;1.10;99.90;;;;;;5035639;28;20465;-54
2022/01/07 04:48:48;;;;;;;3.30;1.97;;;1.10;99.90;;;;;;5036216;28;20487;-53
2022/01/07 04:51:14;;;;;;;6.93;2.40;;;1.20;99.90;;;;;;5036625;28;20446;-58
2022/01/07 04:53:42;;;;;;;4.30;2.67;;;1.10;99.90;;;;;;5035839;28;20502;-54
2022/01/07 04:56:12;;;;;;;1.50;1.40;;;1.10;99.90;;;;;;5036040;28;20464;-50
2022/01/07 04:58:39;;;;;;;3.53;2.37;;;1.10;99.90;;;;;;5036337;28;20461;-57
2022/01/07 05:01:05;;;;;;;2.27;2.17;;;1.10;99.90;;;;;;5036037;28;20474;-53
2022/01/07 05:03:34;;;;;;;7.80;2.33;;;1.10;99.90;;;;;;5035732;28;20529;-54
2022/01/07 05:06:20;;;;;;;2.77;2.00;;;1.00;99.90;;;;;;5035753;28;20503;-50
2022/01/07 05:08:48;;;;;;;5.67;3.03;;;1.00;99.90;;;;;;5036168;28;20472;-52
2022/01/07 05:11:15;;;;;;;11.40;3.10;;;1.00;99.90;;;;;;5035642;28;20449;-48
2022/01/07 05:13:41;;;;;;;13.87;3.10;;;1.10;99.90;;;;;;5035358;28;20492;-52
2022/01/07 05:16:08;;;;;;;3.43;2.57;;;1.00;99.90;;;;;;5035917;28;20485;-52
2022/01/07 05:18:35;;;;;;;2.10;1.90;;;1.00;99.90;;;;;;5035559;28;20477;-48
2022/01/07 05:21:01;;;;;;;5.43;2.67;;;1.00;99.90;;;;;;5086482;22;20514;-48
2022/01/07 05:23:28;;;;;;;7.73;2.47;;;1.10;99.90;;;;;;5076503;28;20447;-47
2022/01/07 05:25:58;;;;;;;6.80;2.53;;;1.10;99.90;;;;;;5076384;28;20621;-53
2022/01/07 05:28:24;;;;;;;4.13;1.97;;;1.10;99.90;;;;;;5076411;28;20464;-48
2022/01/07 05:30:51;;;;;;;2.10;1.47;;;1.10;99.90;;;;;;5076682;28;20424;-49
2022/01/07 05:33:17;;;;;;;5.23;2.90;;;1.10;99.90;;;;;;5076406;28;20473;-47
2022/01/07 05:35:44;;;;;;;8.00;3.57;;;1.10;99.90;;;;;;5076237;28;20453;-51
2022/01/07 05:38:11;;;;;;;3.43;2.27;;;1.10;99.90;;;;;;5076044;28;20481;-50
2022/01/07 05:40:38;;;;;;;3.80;2.80;;;1.10;99.90;;;;;;5075689;28;20428;-52
2022/01/07 05:43:06;;;;;;;2.30;1.47;;;1.20;99.90;;;;;;5075786;28;20448;-57
2022/01/07 05:45:32;;;;;;;6.50;2.20;;;1.20;99.90;;;;;;5075765;28;20473;-52
2022/01/07 05:47:59;;;;;;;1.67;1.57;;;1.20;99.90;;;;;;5075800;28;20444;-53
2022/01/07 05:50:26;;;;;;;2.73;2.37;;;1.20;99.90;;;;;;5075930;28;20444;-52
2022/01/07 05:52:52;;;;;;;4.73;2.30;;;1.20;99.90;;;;;;5076200;28;20435;-58
2022/01/07 05:55:23;;;;;;;3.07;2.47;;;1.20;99.90;;;;;;5075974;28;20463;-54
2022/01/07 05:57:49;;;;;;;2.77;1.60;;;1.20;99.90;;;;;;5076242;28;20459;-52
2022/01/07 06:00:18;;;;;;;5.70;2.27;;;1.20;99.90;;;;;;5076489;28;20451;-52
2022/01/07 06:02:45;;;;;;;8.27;2.33;;;1.30;99.90;;;;;;5076210;28;20442;-46
2022/01/07 06:05:12;;;;;;;19.20;2.77;;;1.30;99.90;;;;;;5075682;28;20448;-51
2022/01/07 06:07:41;;;;;;;1.57;1.40;;;1.30;99.90;;;;;;5075351;28;20445;-58
2022/01/07 06:10:10;;;;;;;2.70;1.27;;;1.30;99.90;;;;;;5075249;28;20466;-50
2022/01/07 06:12:43;;;;;;;1.80;1.50;;;1.30;99.90;;;;;;5075947;28;20430;-51
2022/01/07 06:15:10;;;;;;;3.10;1.80;;;1.30;99.90;;;;;;5075707;28;20495;-47
2022/01/07 06:17:38;;;;;;;6.70;2.13;;;1.30;99.90;;;;;;5075774;28;20489;-52
2022/01/07 06:20:06;;;;;;;3.73;2.33;;;1.30;99.90;;;;;;5075623;28;20550;-53
2022/01/07 06:22:35;;;;;;;1.70;1.60;;;1.30;99.90;;;;;;5076052;28;20474;-49
2022/01/07 06:25:02;;;;;;;3.50;2.17;;;1.30;99.90;;;;;;5076078;28;20460;-53
2022/01/07 06:27:29;;;;;;;2.93;1.60;;;1.30;99.90;;;;;;5075688;28;20453;-51
2022/01/07 06:29:57;;;;;;;1.73;1.53;;;1.30;99.90;;;;;;5076304;28;20564;-48
2022/01/07 06:32:24;;;;;;;3.07;1.77;;;1.30;99.90;;;;;;5080059;28;20439;-47
2022/01/07 06:34:52;;;;;;;1.47;1.30;;;1.30;99.90;;;;;;5079539;28;20463;-50
2022/01/07 06:37:20;;;;;;;4.00;1.83;;;1.30;99.90;;;;;;5078981;28;20447;-48
2022/01/07 06:39:47;;;;;;;11.40;2.83;;;1.30;99.90;;;;;;5079064;28;20462;-51
2022/01/07 06:42:14;;;;;;;5.20;2.60;;;1.30;99.90;;;;;;5079036;28;20440;-51
2022/01/07 06:44:41;;;;;;;7.03;2.40;;;1.30;99.90;;;;;;5078889;28;20469;-50
2022/01/07 06:47:07;;;;;;;3.10;2.80;;;1.30;99.90;;;;;;5079071;28;20438;-50
2022/01/07 06:49:40;;;;;;;6.67;3.20;;;1.30;99.90;;;;;;5079370;28;20454;-50
2022/01/07 06:52:08;;;;;;;3.33;2.13;;;1.30;99.90;;;;;;5079087;28;20412;-49
2022/01/07 06:54:35;;;;;;;5.50;2.33;;;1.30;99.90;;;;;;5078437;28;20626;-52
2022/01/07 06:57:02;;;;;;;7.87;3.17;;;1.30;99.90;;;;;;5078774;28;20449;-50
2022/01/07 06:59:29;;;;;;;5.10;1.90;;;1.40;99.90;;;;;;5078686;28;20471;-53
2022/01/07 07:01:55;;;;;;;4.43;1.73;;;1.30;99.90;;;;;;5078786;28;20471;-50
2022/01/07 07:04:25;;;;;;;2.50;1.73;;;1.30;99.90;;;;;;5078248;28;20490;-49
2022/01/07 07:06:54;;;;;;;5.50;1.90;;;1.30;99.90;;;;;;5079229;28;20447;-45
2022/01/07 07:09:24;;;;;;;4.07;2.40;;;1.40;99.90;;;;;;5078708;28;20477;-46
2022/01/07 07:11:51;;;;;;;5.23;2.37;;;1.40;99.90;;;;;;5078583;28;20439;-49
2022/01/07 07:14:18;;;;;;;7.03;2.10;;;1.50;99.90;;;;;;5077882;28;20479;-47
2022/01/07 07:16:46;;;;;;;4.17;2.40;;;1.40;99.90;;;;;;5078252;28;20440;-50
2022/01/07 07:19:13;;;;;;;5.07;2.50;;;1.40;99.90;;;;;;5077897;28;20470;-51
2022/01/07 07:21:40;;;;;;;7.07;2.67;;;1.50;99.90;;;;;;5078275;28;20467;-51
2022/01/07 07:24:10;;;;;;;9.43;2.67;;;1.50;99.90;;;;;;5078093;28;20452;-50
2022/01/07 07:26:39;;;;;;;5.20;2.67;;;1.50;99.90;;;;;;5078806;28;20466;-50
2022/01/07 07:29:07;;;;;;;2.90;2.23;;;1.50;99.90;;;;;;5078625;28;20470;-48
2022/01/07 07:31:37;;;;;;;2.00;1.23;;;1.50;99.90;;;;;;5078226;28;20463;-51
2022/01/07 07:34:20;;;;;;;6.13;3.53;;;1.50;99.90;;;;;;5078080;28;20503;-48
2022/01/07 07:36:49;;;;;;;5.87;2.40;;;1.50;99.90;;;;;;5078265;28;20989;-52
2022/01/07 07:39:16;;;;;;;4.83;2.23;;;1.40;99.90;;;;;;5077197;28;20456;-53
2022/01/07 07:41:48;;;;;;;7.43;3.10;;;1.40;99.90;;;;;;5077249;28;20426;-49
2022/01/07 07:44:15;;;;;;;2.30;2.10;;;1.40;99.90;;;;;;5078185;28;20446;-46
2022/01/07 07:46:44;;;;;;;8.80;2.73;;;1.40;99.90;;;;;;5077854;28;20439;-51
2022/01/07 07:49:11;;;;;;;5.77;1.83;;;1.40;99.90;;;;;;5077605;28;20443;-49
2022/01/07 07:51:38;;;;;;;7.37;3.20;;;1.50;99.90;;;;;;5078023;28;20470;-54
2022/01/07 07:54:05;;;;;;;4.43;3.00;;;1.50;99.90;;;;;;5077420;28;20489;-50
2022/01/07 07:56:32;;;;;;;3.97;2.80;;;1.40;99.90;;;;;;5077773;28;20458;-47
2022/01/07 07:59:01;;;;;;;7.70;2.50;;;1.40;99.90;;;;;;5077268;28;20493;-48
2022/01/07 08:01:28;;;;;;;4.60;1.57;;;1.50;99.90;;;;;;5077209;28;20470;-49
2022/01/07 08:03:55;;;;;;;6.23;2.77;;;1.50;99.90;;;;;;5077367;28;20443;-48
2022/01/07 08:06:22;;;;;;;4.57;1.73;;;1.60;99.90;;;;;;5076722;28;20473;-48
2022/01/07 08:08:48;;;;;;;4.50;2.90;;;1.70;99.90;;;;;;5068093;28;20440;-48
2022/01/07 08:11:16;;;;;;;5.97;1.70;;;1.70;99.90;;;;;;5068336;28;20468;-48
2022/01/07 08:16:29;;;;;;;4.10;1.97;;;1.70;99.90;;;;;;5076614;28;20453;-47
2022/01/07 08:18:58;;;;;;;12.70;2.20;;;1.70;99.90;;;;;;5076785;28;20463;-49
2022/01/07 08:21:28;;;;;;;3.50;2.23;;;1.70;99.90;;;;;;5076628;28;20448;-46
2022/01/07 08:23:56;;;;;;;4.33;2.10;;;1.70;99.90;;;;;;5076201;28;20490;-43
2022/01/07 08:26:24;;;;;;;4.20;2.17;;;1.80;99.90;;;;;;5076645;28;20443;-46
2022/01/07 08:28:55;;;;;;;3.97;2.40;;;1.90;99.90;;;;;;5076883;28;20482;-50
2022/01/07 08:34:53;;;;;;;2.80;2.57;;;1.80;99.90;;;;;;5076628;28;20461;-53
2022/01/07 08:37:02;;;;;;;8.50;3.33;;;1.80;99.90;;;;;;5076592;28;20423;-49
2022/01/07 08:39:29;;;;;;;2.50;1.63;;;1.90;99.90;;;;;;5076409;28;20440;-53
2022/01/07 08:41:56;;;;;;;6.33;2.20;;;2.00;99.90;;;;;;5076565;28;20446;-51
2022/01/07 08:44:25;;;;;;;6.67;1.40;;;2.00;99.90;;;;;;5076717;28;20466;-53
2022/01/07 08:46:54;;;;;;;2.93;2.27;;;2.00;99.90;;;;;;5076069;28;20474;-50
2022/01/07 08:49:22;;;;;;;4.93;3.00;;;2.00;99.90;;;;;;5076390;28;20466;-48
2022/01/07 08:51:49;;;;;;;2.47;2.27;;;2.00;99.90;;;;;;5076376;28;20466;-50
2022/01/07 08:54:18;;;;;;;3.10;2.03;;;2.10;99.90;;;;;;5076031;28;20455;-55
2022/01/07 08:56:45;;;;;;;6.33;2.60;;;2.10;99.90;;;;;;5076447;28;20457;-50
2022/01/07 08:59:11;;;;;;;3.53;2.33;;;2.10;99.90;;;;;;5076681;28;20474;-46
2022/01/07 09:01:38;;;;;;;2.50;2.00;;;2.20;99.90;;;;;;5076260;28;20434;-52
2022/01/07 09:04:05;;;;;;;6.40;2.60;;;2.20;99.90;;;;;;5076575;28;20485;-51
2022/01/07 09:06:33;;;;;;;5.93;2.87;;;2.20;99.90;;;;;;5076432;28;20481;-46
2022/01/07 09:09:00;;;;;;;3.80;2.67;;;2.30;99.90;;;;;;5076261;28;20447;-52
2022/01/07 09:11:27;;;;;;;1.93;1.80;;;2.30;99.90;;;;;;5075752;28;20467;-48
2022/01/07 09:13:56;;;;;;;4.90;2.50;;;2.30;99.90;;;;;;5076212;28;20456;-52
2022/01/07 09:16:25;;;;;;;5.27;2.40;;;2.40;99.90;;;;;;5075795;28;20478;-51
2022/01/07 09:18:52;;;;;;;5.10;2.87;;;2.40;99.90;;;;;;5076577;28;20435;-53
2022/01/07 09:21:18;;;;;;;3.57;1.67;;;2.50;99.90;;;;;;5076010;28;20467;-46
2022/01/07 09:23:47;;;;;;;3.73;2.10;;;2.60;99.90;;;;;;5076479;28;20442;-48
2022/01/07 09:26:16;;;;;;;13.03;5.30;;;2.70;99.90;;;;;;5076349;28;20473;-48
2022/01/07 09:28:42;;;;;;;4.03;2.47;;;2.80;99.90;;;;;;5076599;28;20445;-47
2022/01/07 09:31:11;;;;;;;2.00;1.57;;;2.80;99.90;;;;;;5076369;28;20464;-46
2022/01/07 09:33:37;;;;;;;13.53;2.53;;;2.90;99.90;;;;;;5076051;28;20478;-53
2022/01/07 09:36:05;;;;;;;5.70;2.07;;;2.90;99.90;;;;;;5076246;28;20498;-56
2022/01/07 09:38:31;;;;;;;3.20;2.30;;;3.00;99.90;;;;;;5076053;28;20435;-49
2022/01/07 09:41:00;;;;;;;8.93;2.60;;;3.00;99.90;;;;;;5075893;28;20464;-57
2022/01/07 09:43:29;;;;;;;4.90;3.10;;;3.00;99.90;;;;;;5075562;28;20458;-52
2022/01/07 09:45:56;;;;;;;7.03;2.50;;;3.10;99.90;;;;;;5075650;28;20464;-63
2022/01/07 09:48:23;;;;;;;5.50;3.17;;;3.00;99.90;;;;;;5076259;28;20411;-48
2022/01/07 09:50:51;;;;;;;5.20;2.77;;;3.10;99.90;;;;;;5075959;28;20467;-49
2022/01/07 09:53:18;;;;;;;7.93;2.50;;;3.00;99.90;;;;;;5075925;28;20446;-50
2022/01/07 09:55:47;;;;;;;5.13;2.87;;;3.10;99.90;;;;;;5075848;28;20479;-47
2022/01/07 09:58:16;;;;;;;9.00;2.40;;;3.10;99.90;;;;;;5076014;28;20756;-49
2022/01/07 10:00:44;;;;;;;5.00;1.90;;;3.30;99.90;;;;;;5075478;28;20469;-46
2022/01/07 10:03:13;;;;;;;5.40;3.47;;;3.50;99.90;;;;;;5076091;28;20416;-46
2022/01/07 10:05:42;;;;;;;4.83;2.40;;;3.70;99.90;;;;;;5076789;28;20463;-48
2022/01/07 10:08:20;;;;;;;4.23;2.27;;;3.90;99.90;;;;;;5079365;28;20428;-51
2022/01/07 10:10:47;;;;;;;3.83;2.47;;;3.90;99.90;;;;;;5079612;28;20420;-48
2022/01/07 10:13:20;;;;;;;19.87;6.70;;;3.90;99.90;;;;;;5079501;28;20432;-45
2022/01/07 10:15:47;;;;;;;3.27;2.40;;;3.90;99.90;;;;;;5079351;28;20463;-50
2022/01/07 10:18:15;;;;;;;5.03;2.10;;;3.90;99.90;;;;;;5079788;28;21019;-49
2022/01/07 10:20:44;;;;;;;3.23;2.03;;;4.00;99.90;;;;;;5079244;28;20452;-52
2022/01/07 10:23:13;;;;;;;2.93;2.43;;;4.60;99.90;;;;;;5078899;28;20443;-52
2022/01/07 10:25:42;;;;;;;8.10;2.70;;;5.50;99.90;;;;;;5079063;28;20431;-45
2022/01/07 10:28:12;;;;;;;5.07;1.93;;;6.20;99.90;;;;;;5079142;28;20425;-47
2022/01/07 10:30:42;;;;;;;8.63;3.23;;;6.30;99.90;;;;;;5079047;28;20474;-50
2022/01/07 10:33:22;;;;;;;3.30;2.30;;;6.10;99.90;;;;;;5079355;28;20443;-50
2022/01/07 10:35:51;;;;;;;2.50;1.90;;;5.90;99.90;;;;;;5079510;28;20463;-47
2022/01/07 10:38:20;;;;;;;2.07;1.70;;;5.60;99.90;;;;;;5079817;28;20443;-47
2022/01/07 10:40:48;;;;;;;5.87;2.70;;;5.30;99.90;;;;;;5078852;28;20436;-52
2022/01/07 10:43:17;;;;;;;8.20;3.17;;;5.10;99.90;;;;;;5078956;28;20458;-52
2022/01/07 10:45:47;;;;;;;5.43;2.70;;;5.00;99.90;;;;;;5079562;28;20470;-48
2022/01/07 10:48:16;;;;;;;4.33;2.20;;;4.90;99.90;;;;;;5078956;28;20431;-50
2022/01/07 10:50:44;;;;;;;12.47;2.37;;;4.80;99.90;;;;;;5078971;28;20463;-45
2022/01/07 10:53:23;;;;;;;5.37;3.37;;;4.70;99.90;;;;;;5079604;28;20462;-50
2022/01/07 10:56:09;;;;;;;4.60;1.97;;;4.70;99.90;;;;;;5078900;28;20494;-47
2022/01/07 10:59:06;;;;;;;8.60;2.47;;;4.60;99.90;;;;;;5079028;28;20413;-53
2022/01/07 11:01:44;;;;;;;4.73;2.50;;;4.60;99.90;;;;;;4997775;28;20455;-52
2022/01/07 11:04:14;;;;;;;7.43;3.07;;;4.50;99.90;;;;;;5066393;28;20438;-47
2022/01/07 11:06:41;;;;;;;3.73;2.30;;;4.40;99.90;;;;;;5078356;28;20460;-49
2022/01/07 11:09:10;;;;;;;5.07;1.90;;;4.50;99.90;;;;;;5078442;28;20443;-48
2022/01/07 11:11:45;;;;;;;4.03;2.50;;;4.50;99.90;;;;;;5078131;28;20959;-49
2022/01/07 11:14:16;;;;;;;4.10;2.57;;;4.40;99.90;;;;;;5078317;28;20434;-50
2022/01/07 11:16:45;;;;;;;9.47;3.40;;;4.30;99.90;;;;;;5078151;28;20521;-47
2022/01/07 11:19:18;;;;;;;7.67;3.43;;;4.30;99.90;;;;;;5078490;28;20454;-47
2022/01/07 11:21:49;;;;;;;3.73;2.10;;;4.30;99.90;;;;;;5078320;28;20465;-50
2022/01/07 11:24:33;;;;;;;5.53;2.40;;;4.30;99.90;;;;;;5078628;28;20478;-46
2022/01/07 11:27:01;;;;;;;13.57;2.97;;;4.30;99.90;;;;;;5078420;28;20480;-49
2022/01/07 11:29:29;;;;;;;5.60;2.53;;;4.30;99.90;;;;;;5077936;28;20451;-49
2022/01/07 11:32:32;;;;;;;7.07;3.30;;;4.30;99.90;;;;;;5077987;28;20539;-48
2022/01/07 11:35:46;;;;;;;9.60;2.17;;;4.30;99.90;;;;;;5077711;28;20452;-48
2022/01/07 11:38:42;;;;;;;4.63;2.37;;;4.30;99.90;;;;;;5077624;28;20465;-46
2022/01/07 11:41:36;;;;;;;5.07;3.10;;;4.30;99.90;;;;;;5077759;28;20455;-51
2022/01/07 11:44:13;;;;;;;3.03;1.67;;;4.40;99.90;;;;;;5077495;28;20452;-49
2022/01/07 11:46:40;;;;;;;7.40;3.73;;;4.30;99.90;;;;;;5077964;28;20415;-51
2022/01/07 11:49:27;;;;;;;3.83;2.67;;;4.30;99.90;;;;;;5078281;28;20432;-50
2022/01/07 11:51:53;;;;;;;3.10;2.37;;;4.30;99.90;;;;;;5077417;28;20467;-50
2022/01/07 11:54:21;;;;;;;2.40;1.70;;;4.30;99.90;;;;;;5077485;28;20424;-47
2022/01/07 11:56:49;;;;;;;2.57;2.10;;;4.40;99.90;;;;;;5077929;28;20483;-47
2022/01/07 11:59:26;;;;;;;2.77;2.10;;;4.30;99.90;;;;;;5077833;28;20448;-49
2022/01/07 12:02:05;;;;;;;3.40;2.73;;;4.30;99.90;;;;;;5077277;28;20463;-49
2022/01/07 12:04:38;;;;;;;6.23;2.60;;;4.30;99.90;;;;;;5077641;28;20415;-51
2022/01/07 12:07:06;;;;;;;3.70;2.93;;;4.30;99.90;;;;;;5077434;28;20478;-47
2022/01/07 12:09:38;;;;;;;4.83;2.70;;;4.20;99.90;;;;;;5077496;28;20444;-50
2022/01/07 12:12:07;;;;;;;16.63;7.67;;;4.20;99.90;;;;;;5077251;28;20464;-50
2022/01/07 12:14:38;;;;;;;24.67;9.00;;;4.20;99.90;;;;;;5077308;28;20474;-48
2022/01/07 12:17:09;;;;;;;4.57;2.60;;;4.20;99.90;;;;;;5076820;28;20518;-45
2022/01/07 12:20:18;;;;;;;5.93;2.23;;;4.20;99.90;;;;;;5077287;28;20442;-48
2022/01/07 12:22:50;;;;;;;6.33;2.10;;;4.20;99.90;;;;;;5077208;28;20472;-51
2022/01/07 12:25:17;;;;;;;5.20;2.10;;;4.20;99.90;;;;;;5076949;28;20451;-49
2022/01/07 12:27:43;;;;;;;6.93;3.13;;;4.20;99.90;;;;;;5076237;28;20464;-49
2022/01/07 12:30:13;;;;;;;9.97;4.30;;;4.20;99.90;;;;;;5076664;28;20459;-52
2022/01/07 12:32:40;;;;;;;3.70;3.10;;;4.20;99.90;;;;;;5077204;28;20479;-51
2022/01/07 12:35:10;;;;;;;12.60;4.37;;;4.20;99.90;;;;;;5076951;28;20443;-50
2022/01/07 12:37:38;;;;;;;4.87;2.90;;;4.10;99.90;;;;;;5076698;28;20444;-51
2022/01/07 12:40:09;;;;;;;3.67;2.57;;;4.20;99.90;;;;;;5076520;28;20487;-51
2022/01/07 12:42:42;;;;;;;5.77;3.63;;;4.20;99.90;;;;;;5076627;28;20932;-49
2022/01/07 12:45:19;;;;;;;4.40;2.60;;;4.30;99.90;;;;;;5076792;28;20434;-47
2022/01/07 12:47:46;;;;;;;11.87;3.07;;;4.30;99.90;;;;;;5076617;28;20452;-46
2022/01/07 12:50:14;;;;;;;4.10;2.57;;;4.30;99.90;;;;;;5076942;28;20439;-49
2022/01/07 12:52:43;;;;;;;5.40;3.00;;;4.30;99.90;;;;;;5076567;28;20463;-48
2022/01/07 12:55:13;;;;;;;13.97;2.83;;;4.40;99.90;;;;;;5076880;28;20491;-48
2022/01/07 12:57:42;;;;;;;8.27;2.63;;;4.40;99.90;;;;;;5077008;28;20478;-47
2022/01/07 13:00:21;;;;;;;3.63;2.13;;;4.30;99.90;;;;;;5076699;28;20436;-51
2022/01/07 13:02:53;;;;;;;6.20;2.50;;;4.20;99.90;;;;;;5077206;28;20924;-48
2022/01/07 13:05:22;;;;;;;2.97;2.53;;;4.20;99.90;;;;;;5077123;28;20487;-52
2022/01/07 13:07:51;;;;;;;13.13;2.70;;;4.10;99.90;;;;;;5076327;28;20488;-44
2022/01/07 13:10:20;;;;;;;6.00;3.90;;;4.10;99.90;;;;;;5076408;28;20408;-53